Shinpu Maru — JD3456 — position and weather

sailwx.info

Track history (hours):
 
Tides and Currents Weather Stations Pressure Air Temp Water Temp Dewpoint Dewpoint Depression Visibility Wind Speed Wind Dir Waves Ship Positions

Shinpu Maru

Last reported at 2018-Jan-12 14:59 UTC. Time now 2018-Jan-17 23:55 UTC.
Position N 34°40' E 139°02'.

Length 71 m; draft 3.8 m.

Type: Tanker. MMSI: 431004247.

Date/timePositionNaut miles runAvg speedWind from/ knotsBaromVisibWave heightAir tempDewpointWater temp
2018-Jan-12 14:59N 34°40' E 139°02'712.3
2018-Jan-12 14:25N 34°45' E 139°07'612.2
2018-Jan-12 13:56N 34°50' E 139°12'612.1
2018-Jan-12 13:28N 34°54' E 139°16'610.5
2018-Jan-12 12:55N 34°58' E 139°21'510.7
2018-Jan-12 12:27N 35°00' E 139°27'510.2
2018-Jan-12 12:00N 35°02' E 139°32'611.1
2018-Jan-12 11:30N 35°04' E 139°38'611.7
2018-Jan-12 10:59N 35°08' E 139°44'612.6
2018-Jan-12 10:30N 35°14' E 139°46'611.6
2018-Jan-12 10:00N 35°19' E 139°43'611.7
2018-Jan-12 09:30N 35°25' E 139°43'613.0
2018-Jan-12 09:00N 35°29' E 139°50'713.0
2018-Jan-12 08:29N 35°32' E 139°57'612.8
2018-Jan-12 08:00N 35°35' E 140°03'3 5.3
2018-Jan-12 07:30N 35°35' E 140°07'0 0.0
2018-Jan-12 07:00N 35°35' E 140°07'0 0.0
2018-Jan-12 06:30N 35°35' E 140°07'0 0.0
2018-Jan-12 06:00N 35°35' E 140°07'0 0.0
2018-Jan-12 05:30N 35°35' E 140°07'0 0.0
2018-Jan-12 05:00N 35°35' E 140°07'0 0.0
2018-Jan-12 04:30N 35°35' E 140°07'1 1.2
2018-Jan-12 04:00N 35°35' E 140°06'612.2
2018-Jan-12 03:30N 35°33' E 139°59'612.5
2018-Jan-12 03:00N 35°31' E 139°52'2 3.4
2018-Jan-12 02:30N 35°30' E 139°50'0 0.0
2018-Jan-12 02:00N 35°30' E 139°50'0 0.0
2018-Jan-12 01:30N 35°30' E 139°50'0 0.1
2018-Jan-12 01:00N 35°30' E 139°50'3 5.8
2018-Jan-12 00:30N 35°30' E 139°47'3 6.2
2018-Jan-12 00:00N 35°29' E 139°43'0 0.0
2018-Jan-11 23:30N 35°29' E 139°43'0 0.1
2018-Jan-11 23:00N 35°29' E 139°43'4 7.2
2018-Jan-11 22:30N 35°30' E 139°47'610.2
2018-Jan-11 21:57N 35°33' E 139°53'4 7.5
2018-Jan-11 21:29N 35°36' E 139°56'0 0.0
2018-Jan-11 20:05N 35°36' E 139°56'0 0.0
2018-Jan-11 19:50N 35°36' E 139°56'0 0.0
2018-Jan-11 18:35N 35°36' E 139°56'0 0.0
2018-Jan-11 18:29N 35°36' E 139°56'0 0.0
2018-Jan-11 17:56N 35°36' E 139°56'0 0.0
2018-Jan-11 17:29N 35°36' E 139°56'0 0.0
2018-Jan-11 16:05N 35°36' E 139°56'0 0.1
2018-Jan-11 15:59N 35°36' E 139°56'0 0.0
2018-Jan-11 14:41N 35°36' E 139°56'0 0.0
2018-Jan-11 14:14N 35°36' E 139°56'0 0.0
2018-Jan-11 13:50N 35°36' E 139°56'0 0.0
2018-Jan-11 13:26N 35°36' E 139°56'0 0.0
2018-Jan-11 12:59N 35°36' E 139°56'0 0.0
2018-Jan-11 12:29N 35°36' E 139°56'0 0.0
2018-Jan-11 11:59N 35°36' E 139°56'0 0.0
2018-Jan-11 11:20N 35°36' E 139°56'0 0.0
2018-Jan-11 10:59N 35°36' E 139°56'0 0.0
2018-Jan-11 10:29N 35°36' E 139°56'0 0.0
2018-Jan-11 09:29N 35°36' E 139°56'0 0.0
2018-Jan-11 08:53N 35°36' E 139°56'0 0.6
2018-Jan-11 08:31N 35°36' E 139°56'611.9
2018-Jan-11 08:01N 35°34' E 140°03'3 5.2
2018-Jan-11 07:30N 35°32' E 140°06'0 0.0
2018-Jan-11 06:59N 35°32' E 140°06'0 0.0
2018-Jan-11 06:28N 35°32' E 140°06'0 0.0
2018-Jan-11 06:00N 35°32' E 140°06'0 0.0
2018-Jan-11 05:31N 35°32' E 140°06'0 0.0
2018-Jan-11 05:00N 35°32' E 140°06'0 0.1
2018-Jan-11 04:30N 35°32' E 140°05'3 6.1
2018-Jan-11 04:01N 35°35' E 140°05'2 2.8
2018-Jan-11 03:28N 35°35' E 140°07'0 0.0
2018-Jan-11 02:58N 35°35' E 140°07'0 0.0
2018-Jan-11 02:28N 35°35' E 140°07'0 0.0
2018-Jan-11 01:58N 35°35' E 140°07'0 0.0
2018-Jan-11 01:28N 35°35' E 140°07'0 0.0
2018-Jan-11 00:58N 35°35' E 140°07'0 0.0
2018-Jan-11 00:28N 35°35' E 140°07'0 0.0
2018-Jan-10 23:58N 35°35' E 140°07'0 0.0
2018-Jan-10 23:28N 35°35' E 140°07'0 0.0
2018-Jan-10 22:58N 35°35' E 140°07'0 0.0
2018-Jan-10 22:28N 35°35' E 140°07'2 3.5
2018-Jan-10 22:01N 35°35' E 140°05'2 3.3
2018-Jan-10 21:30N 35°34' E 140°03'0 0.0
2018-Jan-10 20:58N 35°34' E 140°03'0 0.0
2018-Jan-10 20:28N 35°34' E 140°03'0 0.0
2018-Jan-10 19:58N 35°34' E 140°03'0 0.0
2018-Jan-10 19:28N 35°34' E 140°03'0 0.0
2018-Jan-10 18:58N 35°34' E 140°03'0 0.0
2018-Jan-10 18:28N 35°34' E 140°03'0 0.0
2018-Jan-10 17:58N 35°34' E 140°03'0 0.1
2018-Jan-10 17:28N 35°34' E 140°03'0 0.0
2018-Jan-10 16:58N 35°34' E 140°03'0 0.1
2018-Jan-10 16:28N 35°34' E 140°03'0 0.0
2018-Jan-10 15:58N 35°34' E 140°03'0 0.0
2018-Jan-10 15:28N 35°34' E 140°03'0 0.0
2018-Jan-10 14:58N 35°34' E 140°03'0 0.0
2018-Jan-10 14:28N 35°34' E 140°03'0 0.0
2018-Jan-10 13:58N 35°34' E 140°03'0 0.0
2018-Jan-10 13:28N 35°34' E 140°03'0 0.0
2018-Jan-10 12:55N 35°34' E 140°03'0 0.0
2018-Jan-10 12:28N 35°34' E 140°03'0 0.0
2018-Jan-10 11:58N 35°34' E 140°03'0 0.0
2018-Jan-10 11:28N 35°34' E 140°03'0 0.0
2018-Jan-10 10:58N 35°34' E 140°03'0 0.0
2018-Jan-10 10:28N 35°34' E 140°03'0 0.0
2018-Jan-10 09:58N 35°34' E 140°03'0 0.0
2018-Jan-10 09:28N 35°34' E 140°03'0 0.0
2018-Jan-10 08:58N 35°34' E 140°03'0 0.0
2018-Jan-10 08:28N 35°34' E 140°03'0 0.0
2018-Jan-10 07:58N 35°34' E 140°03'0 0.0
2018-Jan-10 07:28N 35°34' E 140°03'0 0.0
2018-Jan-10 06:58N 35°34' E 140°03'0 0.0
2018-Jan-10 06:25N 35°34' E 140°03'0 0.0
2018-Jan-10 05:58N 35°34' E 140°03'2 4.3
2018-Jan-10 05:30N 35°33' E 140°05'1 0.2
2018-Jan-10 03:01N 35°32' E 140°06'2 4.8
2018-Jan-10 02:31N 35°34' E 140°03'0 0.1
2018-Jan-10 01:57N 35°34' E 140°03'2 4.9
2018-Jan-10 01:30N 35°36' E 140°05'1 2.3
2018-Jan-10 00:58N 35°35' E 140°07'0 0.0
2018-Jan-10 00:28N 35°35' E 140°07'0 0.0
2018-Jan-09 23:58N 35°35' E 140°07'0 0.0
2018-Jan-09 23:28N 35°35' E 140°07'0 0.0
2018-Jan-09 22:58N 35°35' E 140°07'0 0.0
2018-Jan-09 22:28N 35°35' E 140°07'2 3.9
2018-Jan-09 22:01N 35°35' E 140°04'1 1.7
2018-Jan-09 21:30N 35°35' E 140°04'0 0.0
2018-Jan-09 20:58N 35°35' E 140°04'0 0.0
2018-Jan-09 20:30N 35°35' E 140°04'0 0.0
2018-Jan-09 20:01N 35°35' E 140°04'0 0.0
2018-Jan-09 19:27N 35°35' E 140°04'0 0.0
2018-Jan-09 18:58N 35°35' E 140°04'0 0.0
2018-Jan-09 18:27N 35°35' E 140°04'0 0.0
2018-Jan-09 17:58N 35°35' E 140°04'0 0.0
2018-Jan-09 17:28N 35°35' E 140°04'0 0.0
2018-Jan-09 17:00N 35°35' E 140°04'0 0.0
2018-Jan-09 16:30N 35°35' E 140°04'0 0.0
2018-Jan-09 16:01N 35°35' E 140°04'0 0.0
2018-Jan-09 15:28N 35°35' E 140°04'0 0.0
2018-Jan-09 15:01N 35°35' E 140°04'0 0.0
2018-Jan-09 14:31N 35°35' E 140°04'0 0.0
2018-Jan-09 13:58N 35°35' E 140°04'0 0.0
2018-Jan-09 13:24N 35°35' E 140°04'0 0.0
2018-Jan-09 12:57N 35°35' E 140°04'0 0.0
2018-Jan-09 12:28N 35°35' E 140°04'0 0.0
2018-Jan-09 12:01N 35°35' E 140°04'0 0.0
2018-Jan-09 11:27N 35°35' E 140°04'0 0.0
2018-Jan-09 10:58N 35°35' E 140°04'0 0.0
2018-Jan-09 10:30N 35°35' E 140°04'0 0.0
2018-Jan-09 10:01N 35°35' E 140°04'0 0.0
2018-Jan-09 09:28N 35°35' E 140°04'0 0.0
2018-Jan-09 09:01N 35°35' E 140°04'0 0.0
2018-Jan-09 08:30N 35°35' E 140°04'0 0.0
2018-Jan-09 08:00N 35°35' E 140°04'0 0.1
2018-Jan-09 07:28N 35°35' E 140°04'0 0.0
2018-Jan-09 06:57N 35°35' E 140°04'0 0.0
2018-Jan-09 06:30N 35°35' E 140°04'2 3.5
2018-Jan-09 05:48N 35°36' E 140°06'0 0.0
2018-Jan-09 05:27N 35°36' E 140°06'0 0.0
2018-Jan-09 05:00N 35°36' E 140°06'0 0.0
2018-Jan-09 04:30N 35°36' E 140°06'0 0.0
2018-Jan-09 04:00N 35°36' E 140°06'0 0.0
2018-Jan-09 03:30N 35°36' E 140°06'3 5.2
2018-Jan-09 03:01N 35°35' E 140°04'0 0.1
2018-Jan-09 02:29N 35°35' E 140°04'0 0.1
2018-Jan-09 02:01N 35°35' E 140°04'3 1.1
2018-Jan-08 23:32N 35°32' E 140°06'0 1.8
2018-Jan-08 23:30N 35°32' E 140°05'2 4.2
2018-Jan-08 23:01N 35°34' E 140°03'1 2.4
2018-Jan-08 22:29N 35°34' E 140°05'0 0.1
2018-Jan-08 21:59N 35°34' E 140°05'0 0.0
2018-Jan-08 21:29N 35°34' E 140°05'0 0.0
2018-Jan-08 20:59N 35°34' E 140°05'0 0.0
2018-Jan-08 20:29N 35°34' E 140°05'0 0.1
2018-Jan-08 19:59N 35°34' E 140°05'0 0.0
2018-Jan-08 19:29N 35°34' E 140°05'0 0.0
2018-Jan-08 18:59N 35°34' E 140°05'0 0.0
2018-Jan-08 18:29N 35°34' E 140°05'0 0.0
2018-Jan-08 17:59N 35°34' E 140°05'0 0.0
2018-Jan-08 17:29N 35°34' E 140°05'0 0.0
2018-Jan-08 16:59N 35°34' E 140°05'0 0.0
2018-Jan-08 16:29N 35°34' E 140°05'0 0.0
2018-Jan-08 15:59N 35°34' E 140°05'0 0.0
2018-Jan-08 15:29N 35°34' E 140°05'0 0.1
2018-Jan-08 14:59N 35°34' E 140°05'0 0.1
2018-Jan-08 14:29N 35°34' E 140°05'0 0.0
2018-Jan-08 13:59N 35°34' E 140°05'0 0.0
2018-Jan-08 13:29N 35°34' E 140°05'0 0.1
2018-Jan-08 12:59N 35°34' E 140°05'0 0.2
2018-Jan-08 12:29N 35°34' E 140°05'0 0.0
2018-Jan-08 11:59N 35°34' E 140°05'0 0.1
2018-Jan-08 11:29N 35°34' E 140°05'2 3.6
2018-Jan-08 11:01N 35°34' E 140°03'612.6
2018-Jan-08 10:30N 35°31' E 139°55'613.0
2018-Jan-08 10:00N 35°27' E 139°49'612.5
2018-Jan-08 09:31N 35°22' E 139°45'611.5
2018-Jan-08 09:00N 35°16' E 139°46'612.2
2018-Jan-08 08:30N 35°10' E 139°46'612.5
2018-Jan-08 08:00N 35°04' E 139°42'612.6
2018-Jan-08 07:30N 35°00' E 139°37'713.3
2018-Jan-08 06:59N 34°56' E 139°30'815.0
2018-Jan-08 06:28N 34°51' E 139°23'715.0
2018-Jan-08 06:00N 34°46' E 139°17'814.4
2018-Jan-08 05:26N 34°41' E 139°09'614.0
2018-Jan-08 05:00N 34°38' E 139°02'612.9
2018-Jan-08 04:31N 34°35' E 138°55'912.1
2018-Jan-08 03:48N 34°34' E 138°45'512.3
2018-Jan-08 03:23N 34°33' E 138°39'611.7
2018-Jan-08 02:51N 34°33' E 138°31'512.3
2018-Jan-08 02:25N 34°33' E 138°25'512.3
2018-Jan-08 02:00N 34°32' E 138°19'712.9
2018-Jan-08 01:26N 34°32' E 138°10'15811.0
2018-Jan-07 11:04N 33°46' E 135°08'112.7
2018-Jan-07 11:00N 33°47' E 135°07'612.9
2018-Jan-07 10:30N 33°51' E 135°02'612.7
2018-Jan-07 10:00N 33°56' E 134°57'712.9
2018-Jan-07 09:30N 34°01' E 134°52'613.0
2018-Jan-07 09:01N 34°06' E 134°47'713.8
2018-Jan-07 08:30N 34°11' E 134°41'713.6
2018-Jan-07 08:00N 34°16' E 134°36'612.2
2018-Jan-07 07:30N 34°19' E 134°29'612.4
2018-Jan-07 07:00N 34°21' E 134°22'  
2018-Jan-04 19:23N 34°18' E 132°60'2010.5
2018-Jan-04 17:26N 34°02' E 132°45'511.0
2018-Jan-04 17:00N 33°57' E 132°43'611.8
2018-Jan-04 16:30N 33°54' E 132°37'712.1
2018-Jan-04 15:56N 33°51' E 132°29'512.3
2018-Jan-04 15:30N 33°50' E 132°23'712.5
2018-Jan-04 14:54N 33°50' E 132°14'512.5
2018-Jan-04 14:30N 33°48' E 132°08'1012.6
2018-Jan-04 13:41N 33°45' E 131°56'212.8
2018-Jan-04 13:30N 33°46' E 131°54'612.7
2018-Jan-04 13:00N 33°47' E 131°46'612.3
2018-Jan-04 12:30N 33°48' E 131°39'612.2
2018-Jan-04 12:00N 33°49' E 131°32'612.1
2018-Jan-04 11:30N 33°51' E 131°25'611.9
2018-Jan-04 11:00N 33°52' E 131°18'611.8
2018-Jan-04 10:31N 33°53' E 131°11'612.1
2018-Jan-04 10:00N 33°57' E 131°05'611.8
2018-Jan-04 09:31N 33°58' E 130°58'4 8.1
2018-Jan-04 09:00N 33°56' E 130°53'1 1.1
2018-Jan-04 08:30N 33°56' E 130°54'0 0.0
2018-Jan-04 07:57N 33°56' E 130°54'0 0.0
2018-Jan-04 07:27N 33°56' E 130°54'0 0.0
2018-Jan-04 07:00N 33°56' E 130°54'0 0.0
2018-Jan-04 06:27N 33°56' E 130°54'0 0.0
2018-Jan-04 05:57N 33°56' E 130°54'0 0.0
2018-Jan-04 05:27N 33°56' E 130°54'0 0.0
2018-Jan-04 04:57N 33°56' E 130°54'0 0.0
2018-Jan-04 04:27N 33°56' E 130°54'0 0.0
2018-Jan-04 04:00N 33°56' E 130°54'0 0.8
2018-Jan-04 03:30N 33°56' E 130°53'2 3.5
2018-Jan-04 03:00N 33°55' E 130°54'713.7
2018-Jan-04 02:30N 33°58' E 131°01'2 4.8
2018-Jan-04 02:00N 33°58' E 131°04'0 0.0
2018-Jan-04 01:29N 33°58' E 131°04'0 0.0
2018-Jan-04 00:59N 33°58' E 131°04'0 0.0
2018-Jan-04 00:29N 33°58' E 131°04'0 0.0
2018-Jan-03 23:59N 33°58' E 131°04'0 0.0
2018-Jan-03 23:29N 33°58' E 131°04'0 0.0
2018-Jan-03 22:59N 33°58' E 131°04'0 0.0
2018-Jan-03 22:29N 33°58' E 131°04'0 0.0
2018-Jan-03 21:59N 33°58' E 131°04'0 0.1
2018-Jan-03 21:29N 33°58' E 131°04'0 0.0
2018-Jan-03 20:59N 33°58' E 131°04'0 0.0
2018-Jan-03 20:29N 33°58' E 131°04'0 0.0
2018-Jan-03 19:59N 33°58' E 131°04'0 0.0
2018-Jan-03 19:29N 33°58' E 131°04'0 0.0
2018-Jan-03 18:59N 33°58' E 131°04'0 0.0
2018-Jan-03 18:29N 33°58' E 131°04'0 0.0
2018-Jan-03 17:59N 33°58' E 131°04'0 0.0
2018-Jan-03 17:29N 33°58' E 131°04'0 0.0
2018-Jan-03 16:56N 33°58' E 131°04'0 0.0
2018-Jan-03 16:29N 33°58' E 131°04'0 0.0
2018-Jan-03 15:59N 33°58' E 131°04'0 0.0
2018-Jan-03 15:29N 33°58' E 131°04'2 3.6
2018-Jan-03 15:00N 33°57' E 131°06'611.7
2018-Jan-03 14:30N 33°53' E 131°11'611.9
2018-Jan-03 14:00N 33°51' E 131°18'612.2
2018-Jan-03 13:30N 33°50' E 131°25'612.5
2018-Jan-03 13:00N 33°49' E 131°33'612.6
2018-Jan-03 12:30N 33°48' E 131°40'612.5
2018-Jan-03 12:00N 33°47' E 131°48'612.8
2018-Jan-03 11:30N 33°46' E 131°55'612.2
2018-Jan-03 11:00N 33°46' E 132°02'712.0
2018-Jan-03 10:23N 33°49' E 132°11'611.9
2018-Jan-03 09:51N 33°50' E 132°18'411.1
2018-Jan-03 09:30N 33°51' E 132°23'812.2
2018-Jan-03 08:53N 33°53' E 132°31'612.8
2018-Jan-03 08:22N 33°56' E 132°38'512.9
2018-Jan-03 07:58N 33°59' E 132°43'  
Track history (hours):
 
Tides and Currents Weather Stations Pressure Air Temp Water Temp Dewpoint Dewpoint Depression Visibility Wind Speed Wind Dir Waves Ship Positions

Shinpu Maru

Last reported at 2018-Jan-12 14:59 UTC. Time now 2018-Jan-17 23:55 UTC.
Position N 34°40' E 139°02'.

Length 71 m; draft 3.8 m.

Type: Tanker. MMSI: 431004247.

Date/timePositionNaut miles runAvg speedWind from/ knotsBaromVisibWave heightAir tempDewpointWater temp
2018-Jan-12 14:59N 34°40' E 139°02'712.3
2018-Jan-12 14:25N 34°45' E 139°07'612.2
2018-Jan-12 13:56N 34°50' E 139°12'612.1
2018-Jan-12 13:28N 34°54' E 139°16'610.5
2018-Jan-12 12:55N 34°58' E 139°21'510.7
2018-Jan-12 12:27N 35°00' E 139°27'510.2
2018-Jan-12 12:00N 35°02' E 139°32'611.1
2018-Jan-12 11:30N 35°04' E 139°38'611.7
2018-Jan-12 10:59N 35°08' E 139°44'612.6
2018-Jan-12 10:30N 35°14' E 139°46'611.6
2018-Jan-12 10:00N 35°19' E 139°43'611.7
2018-Jan-12 09:30N 35°25' E 139°43'613.0
2018-Jan-12 09:00N 35°29' E 139°50'713.0
2018-Jan-12 08:29N 35°32' E 139°57'612.8
2018-Jan-12 08:00N 35°35' E 140°03'3 5.3
2018-Jan-12 07:30N 35°35' E 140°07'0 0.0
2018-Jan-12 07:00N 35°35' E 140°07'0 0.0
2018-Jan-12 06:30N 35°35' E 140°07'0 0.0
2018-Jan-12 06:00N 35°35' E 140°07'0 0.0
2018-Jan-12 05:30N 35°35' E 140°07'0 0.0
2018-Jan-12 05:00N 35°35' E 140°07'0 0.0
2018-Jan-12 04:30N 35°35' E 140°07'1 1.2
2018-Jan-12 04:00N 35°35' E 140°06'612.2
2018-Jan-12 03:30N 35°33' E 139°59'612.5
2018-Jan-12 03:00N 35°31' E 139°52'2 3.4
2018-Jan-12 02:30N 35°30' E 139°50'0 0.0
2018-Jan-12 02:00N 35°30' E 139°50'0 0.0
2018-Jan-12 01:30N 35°30' E 139°50'0 0.1
2018-Jan-12 01:00N 35°30' E 139°50'3 5.8
2018-Jan-12 00:30N 35°30' E 139°47'3 6.2
2018-Jan-12 00:00N 35°29' E 139°43'0 0.0
2018-Jan-11 23:30N 35°29' E 139°43'0 0.1
2018-Jan-11 23:00N 35°29' E 139°43'4 7.2
2018-Jan-11 22:30N 35°30' E 139°47'610.2
2018-Jan-11 21:57N 35°33' E 139°53'4 7.5
2018-Jan-11 21:29N 35°36' E 139°56'0 0.0
2018-Jan-11 20:05N 35°36' E 139°56'0 0.0
2018-Jan-11 19:50N 35°36' E 139°56'0 0.0
2018-Jan-11 18:35N 35°36' E 139°56'0 0.0
2018-Jan-11 18:29N 35°36' E 139°56'0 0.0
2018-Jan-11 17:56N 35°36' E 139°56'0 0.0
2018-Jan-11 17:29N 35°36' E 139°56'0 0.0
2018-Jan-11 16:05N 35°36' E 139°56'0 0.1
2018-Jan-11 15:59N 35°36' E 139°56'0 0.0
2018-Jan-11 14:41N 35°36' E 139°56'0 0.0
2018-Jan-11 14:14N 35°36' E 139°56'0 0.0
2018-Jan-11 13:50N 35°36' E 139°56'0 0.0
2018-Jan-11 13:26N 35°36' E 139°56'0 0.0
2018-Jan-11 12:59N 35°36' E 139°56'0 0.0
2018-Jan-11 12:29N 35°36' E 139°56'0 0.0
2018-Jan-11 11:59N 35°36' E 139°56'0 0.0
2018-Jan-11 11:20N 35°36' E 139°56'0 0.0
2018-Jan-11 10:59N 35°36' E 139°56'0 0.0
2018-Jan-11 10:29N 35°36' E 139°56'0 0.0
2018-Jan-11 09:29N 35°36' E 139°56'0 0.0
2018-Jan-11 08:53N 35°36' E 139°56'0 0.6
2018-Jan-11 08:31N 35°36' E 139°56'611.9
2018-Jan-11 08:01N 35°34' E 140°03'3 5.2
2018-Jan-11 07:30N 35°32' E 140°06'0 0.0
2018-Jan-11 06:59N 35°32' E 140°06'0 0.0
2018-Jan-11 06:28N 35°32' E 140°06'0 0.0
2018-Jan-11 06:00N 35°32' E 140°06'0 0.0
2018-Jan-11 05:31N 35°32' E 140°06'0 0.0
2018-Jan-11 05:00N 35°32' E 140°06'0 0.1
2018-Jan-11 04:30N 35°32' E 140°05'3 6.1
2018-Jan-11 04:01N 35°35' E 140°05'2 2.8
2018-Jan-11 03:28N 35°35' E 140°07'0 0.0
2018-Jan-11 02:58N 35°35' E 140°07'0 0.0
2018-Jan-11 02:28N 35°35' E 140°07'0 0.0
2018-Jan-11 01:58N 35°35' E 140°07'0 0.0
2018-Jan-11 01:28N 35°35' E 140°07'0 0.0
2018-Jan-11 00:58N 35°35' E 140°07'0 0.0
2018-Jan-11 00:28N 35°35' E 140°07'0 0.0
2018-Jan-10 23:58N 35°35' E 140°07'0 0.0
2018-Jan-10 23:28N 35°35' E 140°07'0 0.0
2018-Jan-10 22:58N 35°35' E 140°07'0 0.0
2018-Jan-10 22:28N 35°35' E 140°07'2 3.5
2018-Jan-10 22:01N 35°35' E 140°05'2 3.3
2018-Jan-10 21:30N 35°34' E 140°03'0 0.0
2018-Jan-10 20:58N 35°34' E 140°03'0 0.0
2018-Jan-10 20:28N 35°34' E 140°03'0 0.0
2018-Jan-10 19:58N 35°34' E 140°03'0 0.0
2018-Jan-10 19:28N 35°34' E 140°03'0 0.0
2018-Jan-10 18:58N 35°34' E 140°03'0 0.0
2018-Jan-10 18:28N 35°34' E 140°03'0 0.0
2018-Jan-10 17:58N 35°34' E 140°03'0 0.1
2018-Jan-10 17:28N 35°34' E 140°03'0 0.0
2018-Jan-10 16:58N 35°34' E 140°03'0 0.1
2018-Jan-10 16:28N 35°34' E 140°03'0 0.0
2018-Jan-10 15:58N 35°34' E 140°03'0 0.0
2018-Jan-10 15:28N 35°34' E 140°03'0 0.0
2018-Jan-10 14:58N 35°34' E 140°03'0 0.0
2018-Jan-10 14:28N 35°34' E 140°03'0 0.0
2018-Jan-10 13:58N 35°34' E 140°03'0 0.0
2018-Jan-10 13:28N 35°34' E 140°03'0 0.0
2018-Jan-10 12:55N 35°34' E 140°03'0 0.0
2018-Jan-10 12:28N 35°34' E 140°03'0 0.0
2018-Jan-10 11:58N 35°34' E 140°03'0 0.0
2018-Jan-10 11:28N 35°34' E 140°03'0 0.0
2018-Jan-10 10:58N 35°34' E 140°03'0 0.0
2018-Jan-10 10:28N 35°34' E 140°03'0 0.0
2018-Jan-10 09:58N 35°34' E 140°03'0 0.0
2018-Jan-10 09:28N 35°34' E 140°03'0 0.0
2018-Jan-10 08:58N 35°34' E 140°03'0 0.0
2018-Jan-10 08:28N 35°34' E 140°03'0 0.0
2018-Jan-10 07:58N 35°34' E 140°03'0 0.0
2018-Jan-10 07:28N 35°34' E 140°03'0 0.0
2018-Jan-10 06:58N 35°34' E 140°03'0 0.0
2018-Jan-10 06:25N 35°34' E 140°03'0 0.0
2018-Jan-10 05:58N 35°34' E 140°03'2 4.3
2018-Jan-10 05:30N 35°33' E 140°05'1 0.2
2018-Jan-10 03:01N 35°32' E 140°06'2 4.8
2018-Jan-10 02:31N 35°34' E 140°03'0 0.1
2018-Jan-10 01:57N 35°34' E 140°03'2 4.9
2018-Jan-10 01:30N 35°36' E 140°05'1 2.3
2018-Jan-10 00:58N 35°35' E 140°07'0 0.0
2018-Jan-10 00:28N 35°35' E 140°07'0 0.0
2018-Jan-09 23:58N 35°35' E 140°07'0 0.0
2018-Jan-09 23:28N 35°35' E 140°07'0 0.0
2018-Jan-09 22:58N 35°35' E 140°07'0 0.0
2018-Jan-09 22:28N 35°35' E 140°07'2 3.9
2018-Jan-09 22:01N 35°35' E 140°04'1 1.7
2018-Jan-09 21:30N 35°35' E 140°04'0 0.0
2018-Jan-09 20:58N 35°35' E 140°04'0 0.0
2018-Jan-09 20:30N 35°35' E 140°04'0 0.0
2018-Jan-09 20:01N 35°35' E 140°04'0 0.0
2018-Jan-09 19:27N 35°35' E 140°04'0 0.0
2018-Jan-09 18:58N 35°35' E 140°04'0 0.0
2018-Jan-09 18:27N 35°35' E 140°04'0 0.0
2018-Jan-09 17:58N 35°35' E 140°04'0 0.0
2018-Jan-09 17:28N 35°35' E 140°04'0 0.0
2018-Jan-09 17:00N 35°35' E 140°04'0 0.0
2018-Jan-09 16:30N 35°35' E 140°04'0 0.0
2018-Jan-09 16:01N 35°35' E 140°04'0 0.0
2018-Jan-09 15:28N 35°35' E 140°04'0 0.0
2018-Jan-09 15:01N 35°35' E 140°04'0 0.0
2018-Jan-09 14:31N 35°35' E 140°04'0 0.0
2018-Jan-09 13:58N 35°35' E 140°04'0 0.0
2018-Jan-09 13:24N 35°35' E 140°04'0 0.0
2018-Jan-09 12:57N 35°35' E 140°04'0 0.0
2018-Jan-09 12:28N 35°35' E 140°04'0 0.0
2018-Jan-09 12:01N 35°35' E 140°04'0 0.0
2018-Jan-09 11:27N 35°35' E 140°04'0 0.0
2018-Jan-09 10:58N 35°35' E 140°04'0 0.0
2018-Jan-09 10:30N 35°35' E 140°04'0 0.0
2018-Jan-09 10:01N 35°35' E 140°04'0 0.0
2018-Jan-09 09:28N 35°35' E 140°04'0 0.0
2018-Jan-09 09:01N 35°35' E 140°04'0 0.0
2018-Jan-09 08:30N 35°35' E 140°04'0 0.0
2018-Jan-09 08:00N 35°35' E 140°04'0 0.1
2018-Jan-09 07:28N 35°35' E 140°04'0 0.0
2018-Jan-09 06:57N 35°35' E 140°04'0 0.0
2018-Jan-09 06:30N 35°35' E 140°04'2 3.5
2018-Jan-09 05:48N 35°36' E 140°06'0 0.0
2018-Jan-09 05:27N 35°36' E 140°06'0 0.0
2018-Jan-09 05:00N 35°36' E 140°06'0 0.0
2018-Jan-09 04:30N 35°36' E 140°06'0 0.0
2018-Jan-09 04:00N 35°36' E 140°06'0 0.0
2018-Jan-09 03:30N 35°36' E 140°06'3 5.2
2018-Jan-09 03:01N 35°35' E 140°04'0 0.1
2018-Jan-09 02:29N 35°35' E 140°04'0 0.1
2018-Jan-09 02:01N 35°35' E 140°04'3 1.1
2018-Jan-08 23:32N 35°32' E 140°06'0 1.8
2018-Jan-08 23:30N 35°32' E 140°05'2 4.2
2018-Jan-08 23:01N 35°34' E 140°03'1 2.4
2018-Jan-08 22:29N 35°34' E 140°05'0 0.1
2018-Jan-08 21:59N 35°34' E 140°05'0 0.0
2018-Jan-08 21:29N 35°34' E 140°05'0 0.0
2018-Jan-08 20:59N 35°34' E 140°05'0 0.0
2018-Jan-08 20:29N 35°34' E 140°05'0 0.1
2018-Jan-08 19:59N 35°34' E 140°05'0 0.0
2018-Jan-08 19:29N 35°34' E 140°05'0 0.0
2018-Jan-08 18:59N 35°34' E 140°05'0 0.0
2018-Jan-08 18:29N 35°34' E 140°05'0 0.0
2018-Jan-08 17:59N 35°34' E 140°05'0 0.0
2018-Jan-08 17:29N 35°34' E 140°05'0 0.0
2018-Jan-08 16:59N 35°34' E 140°05'0 0.0
2018-Jan-08 16:29N 35°34' E 140°05'0 0.0
2018-Jan-08 15:59N 35°34' E 140°05'0 0.0
2018-Jan-08 15:29N 35°34' E 140°05'0 0.1
2018-Jan-08 14:59N 35°34' E 140°05'0 0.1
2018-Jan-08 14:29N 35°34' E 140°05'0 0.0
2018-Jan-08 13:59N 35°34' E 140°05'0 0.0
2018-Jan-08 13:29N 35°34' E 140°05'0 0.1
2018-Jan-08 12:59N 35°34' E 140°05'0 0.2
2018-Jan-08 12:29N 35°34' E 140°05'0 0.0
2018-Jan-08 11:59N 35°34' E 140°05'0 0.1
2018-Jan-08 11:29N 35°34' E 140°05'2 3.6
2018-Jan-08 11:01N 35°34' E 140°03'612.6
2018-Jan-08 10:30N 35°31' E 139°55'613.0
2018-Jan-08 10:00N 35°27' E 139°49'612.5
2018-Jan-08 09:31N 35°22' E 139°45'611.5
2018-Jan-08 09:00N 35°16' E 139°46'612.2
2018-Jan-08 08:30N 35°10' E 139°46'612.5
2018-Jan-08 08:00N 35°04' E 139°42'612.6
2018-Jan-08 07:30N 35°00' E 139°37'713.3
2018-Jan-08 06:59N 34°56' E 139°30'815.0
2018-Jan-08 06:28N 34°51' E 139°23'715.0
2018-Jan-08 06:00N 34°46' E 139°17'814.4
2018-Jan-08 05:26N 34°41' E 139°09'614.0
2018-Jan-08 05:00N 34°38' E 139°02'612.9
2018-Jan-08 04:31N 34°35' E 138°55'912.1
2018-Jan-08 03:48N 34°34' E 138°45'512.3
2018-Jan-08 03:23N 34°33' E 138°39'611.7
2018-Jan-08 02:51N 34°33' E 138°31'512.3
2018-Jan-08 02:25N 34°33' E 138°25'512.3
2018-Jan-08 02:00N 34°32' E 138°19'712.9
2018-Jan-08 01:26N 34°32' E 138°10'15811.0
2018-Jan-07 11:04N 33°46' E 135°08'112.7
2018-Jan-07 11:00N 33°47' E 135°07'612.9
2018-Jan-07 10:30N 33°51' E 135°02'612.7
2018-Jan-07 10:00N 33°56' E 134°57'712.9
2018-Jan-07 09:30N 34°01' E 134°52'613.0
2018-Jan-07 09:01N 34°06' E 134°47'713.8
2018-Jan-07 08:30N 34°11' E 134°41'713.6
2018-Jan-07 08:00N 34°16' E 134°36'612.2
2018-Jan-07 07:30N 34°19' E 134°29'612.4
2018-Jan-07 07:00N 34°21' E 134°22'  
2018-Jan-04 19:23N 34°18' E 132°60'2010.5
2018-Jan-04 17:26N 34°02' E 132°45'511.0
2018-Jan-04 17:00N 33°57' E 132°43'611.8
2018-Jan-04 16:30N 33°54' E 132°37'712.1
2018-Jan-04 15:56N 33°51' E 132°29'512.3
2018-Jan-04 15:30N 33°50' E 132°23'712.5
2018-Jan-04 14:54N 33°50' E 132°14'512.5
2018-Jan-04 14:30N 33°48' E 132°08'1012.6
2018-Jan-04 13:41N 33°45' E 131°56'212.8
2018-Jan-04 13:30N 33°46' E 131°54'612.7
2018-Jan-04 13:00N 33°47' E 131°46'612.3
2018-Jan-04 12:30N 33°48' E 131°39'612.2
2018-Jan-04 12:00N 33°49' E 131°32'612.1
2018-Jan-04 11:30N 33°51' E 131°25'611.9
2018-Jan-04 11:00N 33°52' E 131°18'611.8
2018-Jan-04 10:31N 33°53' E 131°11'612.1
2018-Jan-04 10:00N 33°57' E 131°05'611.8
2018-Jan-04 09:31N 33°58' E 130°58'4 8.1
2018-Jan-04 09:00N 33°56' E 130°53'1 1.1
2018-Jan-04 08:30N 33°56' E 130°54'0 0.0
2018-Jan-04 07:57N 33°56' E 130°54'0 0.0
2018-Jan-04 07:27N 33°56' E 130°54'0 0.0
2018-Jan-04 07:00N 33°56' E 130°54'0 0.0
2018-Jan-04 06:27N 33°56' E 130°54'0 0.0
2018-Jan-04 05:57N 33°56' E 130°54'0 0.0
2018-Jan-04 05:27N 33°56' E 130°54'0 0.0
2018-Jan-04 04:57N 33°56' E 130°54'0 0.0
2018-Jan-04 04:27N 33°56' E 130°54'0 0.0
2018-Jan-04 04:00N 33°56' E 130°54'0 0.8
2018-Jan-04 03:30N 33°56' E 130°53'2 3.5
2018-Jan-04 03:00N 33°55' E 130°54'713.7
2018-Jan-04 02:30N 33°58' E 131°01'2 4.8
2018-Jan-04 02:00N 33°58' E 131°04'0 0.0
2018-Jan-04 01:29N 33°58' E 131°04'0 0.0
2018-Jan-04 00:59N 33°58' E 131°04'0 0.0
2018-Jan-04 00:29N 33°58' E 131°04'0 0.0
2018-Jan-03 23:59N 33°58' E 131°04'0 0.0
2018-Jan-03 23:29N 33°58' E 131°04'0 0.0
2018-Jan-03 22:59N 33°58' E 131°04'0 0.0
2018-Jan-03 22:29N 33°58' E 131°04'0 0.0
2018-Jan-03 21:59N 33°58' E 131°04'0 0.1
2018-Jan-03 21:29N 33°58' E 131°04'0 0.0
2018-Jan-03 20:59N 33°58' E 131°04'0 0.0
2018-Jan-03 20:29N 33°58' E 131°04'0 0.0
2018-Jan-03 19:59N 33°58' E 131°04'0 0.0
2018-Jan-03 19:29N 33°58' E 131°04'0 0.0
2018-Jan-03 18:59N 33°58' E 131°04'0 0.0
2018-Jan-03 18:29N 33°58' E 131°04'0 0.0
2018-Jan-03 17:59N 33°58' E 131°04'0 0.0
2018-Jan-03 17:29N 33°58' E 131°04'0 0.0
2018-Jan-03 16:56N 33°58' E 131°04'0 0.0
2018-Jan-03 16:29N 33°58' E 131°04'0 0.0
2018-Jan-03 15:59N 33°58' E 131°04'0 0.0
2018-Jan-03 15:29N 33°58' E 131°04'2 3.6
2018-Jan-03 15:00N 33°57' E 131°06'611.7
2018-Jan-03 14:30N 33°53' E 131°11'611.9
2018-Jan-03 14:00N 33°51' E 131°18'612.2
2018-Jan-03 13:30N 33°50' E 131°25'612.5
2018-Jan-03 13:00N 33°49' E 131°33'612.6
2018-Jan-03 12:30N 33°48' E 131°40'612.5
2018-Jan-03 12:00N 33°47' E 131°48'612.8
2018-Jan-03 11:30N 33°46' E 131°55'612.2
2018-Jan-03 11:00N 33°46' E 132°02'712.0
2018-Jan-03 10:23N 33°49' E 132°11'611.9
2018-Jan-03 09:51N 33°50' E 132°18'411.1
2018-Jan-03 09:30N 33°51' E 132°23'812.2
2018-Jan-03 08:53N 33°53' E 132°31'612.8
2018-Jan-03 08:22N 33°56' E 132°38'512.9
2018-Jan-03 07:58N 33°59' E 132°43'  

Dump ship's entire track history